sensor_id;sensor_type;location;lat;lon;timestamp;pressure;altitude;pressure_sealevel;temperature;humidity
18765;BME280;9511;54.242;12.448;2023-03-22T04:05:45;100637.91;;;7.25;100.00
18765;BME280;9511;54.242;12.448;2023-03-22T04:08:13;100640.78;;;7.31;100.00
18765;BME280;9511;54.242;12.448;2023-03-22T04:10:41;100634.56;;;7.29;100.00
18765;BME280;9511;54.242;12.448;2023-03-22T04:13:08;100629.31;;;7.29;100.00
18765;BME280;9511;54.242;12.448;2023-03-22T04:15:36;100622.31;;;7.29;100.00
18765;BME280;9511;54.242;12.448;2023-03-22T04:18:07;100621.34;;;7.27;100.00
18765;BME280;9511;54.242;12.448;2023-03-22T04:20:34;100614.34;;;7.28;100.00
18765;BME280;9511;54.242;12.448;2023-03-22T04:23:05;100611.66;;;7.26;100.00
18765;BME280;9511;54.242;12.448;2023-03-22T04:25:35;100612.56;;;7.27;100.00
18765;BME280;9511;54.242;12.448;2023-03-22T04:28:07;100615.09;;;7.24;100.00
18765;BME280;9511;54.242;12.448;2023-03-22T04:30:35;100609.19;;;7.31;100.00
18765;BME280;9511;54.242;12.448;2023-03-22T04:33:34;100606.56;;;7.31;100.00
18765;BME280;9511;54.242;12.448;2023-03-22T04:36:23;100600.28;;;7.27;100.00
18765;BME280;9511;54.242;12.448;2023-03-22T04:39:10;100598.47;;;7.25;100.00
18765;BME280;9511;54.242;12.448;2023-03-22T04:41:40;100600.41;;;7.30;100.00
18765;BME280;9511;54.242;12.448;2023-03-22T04:44:07;100591.47;;;7.25;100.00
18765;BME280;9511;54.242;12.448;2023-03-22T04:46:38;100591.47;;;7.25;100.00
18765;BME280;9511;54.242;12.448;2023-03-22T04:49:07;100596.69;;;7.24;100.00
18765;BME280;9511;54.242;12.448;2023-03-22T04:51:38;100586.19;;;7.25;100.00
18765;BME280;9511;54.242;12.448;2023-03-22T04:54:20;100580.97;;;7.27;100.00
18765;BME280;9511;54.242;12.448;2023-03-22T04:56:48;100574.75;;;7.23;100.00
18765;BME280;9511;54.242;12.448;2023-03-22T04:59:18;100583.41;;;7.21;100.00
18765;BME280;9511;54.242;12.448;2023-03-22T05:01:48;100571.91;;;7.17;100.00
18765;BME280;9511;54.242;12.448;2023-03-22T05:04:20;100571.22;;;7.23;100.00
18765;BME280;9511;54.242;12.448;2023-03-22T05:06:52;100577.19;;;7.18;100.00
18765;BME280;9511;54.242;12.448;2023-03-22T05:09:26;100573.72;;;7.19;100.00
18765;BME280;9511;54.242;12.448;2023-03-22T05:11:54;100572.88;;;7.21;100.00
18765;BME280;9511;54.242;12.448;2023-03-22T05:14:29;100574.66;;;7.22;100.00
18765;BME280;9511;54.242;12.448;2023-03-22T05:16:56;100564.25;;;7.25;100.00
18765;BME280;9511;54.242;12.448;2023-03-22T05:19:24;100559.88;;;7.25;100.00
18765;BME280;9511;54.242;12.448;2023-03-22T05:21:51;100558.19;;;7.27;100.00
18765;BME280;9511;54.242;12.448;2023-03-22T05:24:26;100548.66;;;7.29;100.00
18765;BME280;9511;54.242;12.448;2023-03-22T05:26:53;100550.44;;;7.30;100.00
18765;BME280;9511;54.242;12.448;2023-03-22T05:29:24;100561.94;;;7.34;100.00
18765;BME280;9511;54.242;12.448;2023-03-22T05:32:06;100547.00;;;7.33;100.00
18765;BME280;9511;54.242;12.448;2023-03-22T05:34:35;100555.06;;;7.37;100.00
18765;BME280;9511;54.242;12.448;2023-03-22T05:37:21;100548.03;;;7.38;100.00
18765;BME280;9511;54.242;12.448;2023-03-22T05:39:53;100544.69;;;7.42;100.00
18765;BME280;9511;54.242;12.448;2023-03-22T05:42:26;100551.00;;;7.47;100.00
18765;BME280;9511;54.242;12.448;2023-03-22T05:44:53;100553.72;;;7.50;100.00
18765;BME280;9511;54.242;12.448;2023-03-22T05:47:20;100541.91;;;7.63;100.00
18765;BME280;9511;54.242;12.448;2023-03-22T05:49:56;100556.03;;;7.66;100.00
18765;BME280;9511;54.242;12.448;2023-03-22T05:52:25;100558.72;;;7.68;100.00
18765;BME280;9511;54.242;12.448;2023-03-22T05:55:13;100558.91;;;7.74;100.00
18765;BME280;9511;54.242;12.448;2023-03-22T05:57:43;100566.06;;;7.78;100.00
18765;BME280;9511;54.242;12.448;2023-03-22T06:00:15;100557.41;;;7.81;100.00
18765;BME280;9511;54.242;12.448;2023-03-22T06:03:15;100546.94;;;7.84;100.00
18765;BME280;9511;54.242;12.448;2023-03-22T06:05:47;100547.97;;;7.87;100.00
18765;BME280;9511;54.242;12.448;2023-03-22T06:08:16;100543.81;;;7.95;100.00
18765;BME280;9511;54.242;12.448;2023-03-22T06:10:47;100537.00;;;8.02;100.00
18765;BME280;9511;54.242;12.448;2023-03-22T06:13:15;100539.09;;;8.12;100.00
18765;BME280;9511;54.242;12.448;2023-03-22T06:15:42;100533.81;;;8.12;100.00
18765;BME280;9511;54.242;12.448;2023-03-22T06:18:16;100533.13;;;8.18;100.00
18765;BME280;9511;54.242;12.448;2023-03-22T06:20:48;100527.88;;;8.19;100.00
18765;BME280;9511;54.242;12.448;2023-03-22T06:23:19;100539.53;;;8.26;100.00
18765;BME280;9511;54.242;12.448;2023-03-22T06:25:49;100530.63;;;8.22;100.00
18765;BME280;9511;54.242;12.448;2023-03-22T06:28:17;100525.53;;;8.29;100.00
18765;BME280;9511;54.242;12.448;2023-03-22T06:30:49;100536.75;;;8.21;100.00
18765;BME280;9511;54.242;12.448;2023-03-22T06:33:33;100530.69;;;8.25;100.00
18765;BME280;9511;54.242;12.448;2023-03-22T06:36:09;100532.41;;;8.23;100.00
18765;BME280;9511;54.242;12.448;2023-03-22T06:38:48;100537.63;;;8.22;100.00
18765;BME280;9511;54.242;12.448;2023-03-22T06:41:16;100543.06;;;8.27;100.00
18765;BME280;9511;54.242;12.448;2023-03-22T06:43:44;100539.56;;;8.28;100.00
18765;BME280;9511;54.242;12.448;2023-03-22T06:46:25;100542.22;;;8.28;100.00
18765;BME280;9511;54.242;12.448;2023-03-22T06:49:00;100529.22;;;8.34;100.00
18765;BME280;9511;54.242;12.448;2023-03-22T06:51:28;100542.28;;;8.31;100.00
18765;BME280;9511;54.242;12.448;2023-03-22T06:53:55;100537.97;;;8.33;100.00
18765;BME280;9511;54.242;12.448;2023-03-22T06:56:24;100541.78;;;8.42;100.00
18765;BME280;9511;54.242;12.448;2023-03-22T06:58:52;100533.00;;;8.42;100.00
18765;BME280;9511;54.242;12.448;2023-03-22T07:01:23;100528.00;;;8.51;100.00
18765;BME280;9511;54.242;12.448;2023-03-22T07:03:51;100534.31;;;8.56;100.00
18765;BME280;9511;54.242;12.448;2023-03-22T07:06:21;100531.00;;;8.63;100.00
18765;BME280;9511;54.242;12.448;2023-03-22T07:08:50;100540.84;;;8.69;100.00
18765;BME280;9511;54.242;12.448;2023-03-22T07:11:21;100532.97;;;8.70;100.00
18765;BME280;9511;54.242;12.448;2023-03-22T07:13:57;100525.22;;;8.76;100.00
18765;BME280;9511;54.242;12.448;2023-03-22T07:16:28;100527.19;;;8.84;100.00
18765;BME280;9511;54.242;12.448;2023-03-22T07:18:58;100539.78;;;8.94;100.00
18765;BME280;9511;54.242;12.448;2023-03-22T07:21:25;100521.44;;;8.98;100.00
18765;BME280;9511;54.242;12.448;2023-03-22T07:24:00;100529.50;;;9.03;100.00
18765;BME280;9511;54.242;12.448;2023-03-22T07:26:29;100530.50;;;9.08;100.00
18765;BME280;9511;54.242;12.448;2023-03-22T07:28:59;100527.03;;;9.09;100.00
18765;BME280;9511;54.242;12.448;2023-03-22T07:31:30;100531.44;;;9.10;100.00
18765;BME280;9511;54.242;12.448;2023-03-22T07:34:05;100530.50;;;9.08;100.00
18765;BME280;9511;54.242;12.448;2023-03-22T07:36:57;100536.56;;;9.04;100.00
18765;BME280;9511;54.242;12.448;2023-03-22T07:39:25;100533.19;;;9.10;100.00
18765;BME280;9511;54.242;12.448;2023-03-22T07:41:54;100536.16;;;9.22;100.00
18765;BME280;9511;54.242;12.448;2023-03-22T07:44:26;100533.00;;;9.35;100.00
18765;BME280;9511;54.242;12.448;2023-03-22T07:47:20;100527.97;;;9.46;100.00
18765;BME280;9511;54.242;12.448;2023-03-22T07:50:08;100523.56;;;9.45;100.00
18765;BME280;9511;54.242;12.448;2023-03-22T07:52:37;100522.78;;;9.49;100.00
18765;BME280;9511;54.242;12.448;2023-03-22T07:55:05;100521.31;;;9.60;100.00
18765;BME280;9511;54.242;12.448;2023-03-22T07:57:34;100503.22;;;9.75;100.00
18765;BME280;9511;54.242;12.448;2023-03-22T08:00:05;100507.47;;;10.08;100.00
18765;BME280;9511;54.242;12.448;2023-03-22T08:02:42;100512.03;;;10.14;100.00
18765;BME280;9511;54.242;12.448;2023-03-22T08:05:13;100499.94;;;10.23;100.00
18765;BME280;9511;54.242;12.448;2023-03-22T08:07:43;100509.44;;;10.15;100.00
18765;BME280;9511;54.242;12.448;2023-03-22T08:10:12;100507.16;;;10.30;100.00
18765;BME280;9511;54.242;12.448;2023-03-22T08:12:39;100502.72;;;10.29;99.94
18765;BME280;9511;54.242;12.448;2023-03-22T08:15:15;100512.75;;;10.44;99.19
18765;BME280;9511;54.242;12.448;2023-03-22T08:17:43;100512.63;;;10.38;98.17
18765;BME280;9511;54.242;12.448;2023-03-22T08:20:16;100507.50;;;10.47;98.11
18765;BME280;9511;54.242;12.448;2023-03-22T08:22:49;100525.25;;;10.51;97.94
18765;BME280;9511;54.242;12.448;2023-03-22T08:25:25;100513.50;;;10.39;97.12
18765;BME280;9511;54.242;12.448;2023-03-22T08:27:59;100502.75;;;10.31;96.56
18765;BME280;9511;54.242;12.448;2023-03-22T08:30:28;100491.41;;;10.36;96.60
18765;BME280;9511;54.242;12.448;2023-03-22T08:32:55;100510.06;;;10.43;96.29
18765;BME280;9511;54.242;12.448;2023-03-22T08:35:23;100500.28;;;10.39;96.00
18765;BME280;9511;54.242;12.448;2023-03-22T08:37:52;100497.44;;;10.29;95.81
18765;BME280;9511;54.242;12.448;2023-03-22T08:40:20;100502.81;;;10.34;95.50
18765;BME280;9511;54.242;12.448;2023-03-22T08:42:53;100494.19;;;10.43;95.76
18765;BME280;9511;54.242;12.448;2023-03-22T08:45:20;100502.97;;;10.40;94.95
18765;BME280;9511;54.242;12.448;2023-03-22T08:47:55;100493.06;;;10.31;94.96
18765;BME280;9511;54.242;12.448;2023-03-22T08:50:24;100486.88;;;10.31;94.65
18765;BME280;9511;54.242;12.448;2023-03-22T08:53:00;100482.59;;;10.36;95.08
18765;BME280;9511;54.242;12.448;2023-03-22T08:55:30;100489.63;;;10.35;94.82
18765;BME280;9511;54.242;12.448;2023-03-22T08:58:13;100481.56;;;10.29;95.04
18765;BME280;9511;54.242;12.448;2023-03-22T09:00:50;100478.91;;;10.28;95.33
18765;BME280;9511;54.242;12.448;2023-03-22T09:03:24;100479.94;;;10.36;95.31
18765;BME280;9511;54.242;12.448;2023-03-22T09:05:52;100470.38;;;10.43;95.20
18765;BME280;9511;54.242;12.448;2023-03-22T09:08:19;100468.69;;;10.45;94.91
18765;BME280;9511;54.242;12.448;2023-03-22T09:10:52;100466.16;;;10.51;94.98
18765;BME280;9511;54.242;12.448;2023-03-22T09:13:21;100463.53;;;10.51;94.10
18765;BME280;9511;54.242;12.448;2023-03-22T09:15:54;100462.69;;;10.55;93.62
18765;BME280;9511;54.242;12.448;2023-03-22T09:18:25;100465.34;;;10.55;93.88
18765;BME280;9511;54.242;12.448;2023-03-22T09:20:56;100464.56;;;10.59;93.10
18765;BME280;9511;54.242;12.448;2023-03-22T09:23:29;100462.09;;;10.68;92.72
18765;BME280;9511;54.242;12.448;2023-03-22T09:25:59;100455.03;;;10.67;92.17
18765;BME280;9511;54.242;12.448;2023-03-22T09:28:28;100457.81;;;10.73;91.73
18765;BME280;9511;54.242;12.448;2023-03-22T09:30:59;100442.91;;;10.78;91.57
18765;BME280;9511;54.242;12.448;2023-03-22T09:33:28;100445.50;;;10.77;91.24
18765;BME280;9511;54.242;12.448;2023-03-22T09:35:55;100442.03;;;10.79;90.64
18765;BME280;9511;54.242;12.448;2023-03-22T09:38:23;100445.81;;;10.92;90.95
18765;BME280;9511;54.242;12.448;2023-03-22T09:40:55;100442.38;;;10.98;90.06
18765;BME280;9511;54.242;12.448;2023-03-22T09:43:32;100440.84;;;11.12;89.80
18765;BME280;9511;54.242;12.448;2023-03-22T09:46:02;100434.78;;;11.17;89.31
18765;BME280;9511;54.242;12.448;2023-03-22T09:48:34;100431.53;;;11.34;89.09
18765;BME280;9511;54.242;12.448;2023-03-22T09:51:06;100432.31;;;11.28;88.75
18765;BME280;9511;54.242;12.448;2023-03-22T09:53:40;100433.28;;;11.32;89.17
18765;BME280;9511;54.242;12.448;2023-03-22T09:56:12;100435.84;;;11.29;89.65
18765;BME280;9511;54.242;12.448;2023-03-22T09:58:44;100427.09;;;11.33;89.84
18765;BME280;9511;54.242;12.448;2023-03-22T10:01:19;100428.91;;;11.35;89.28
18765;BME280;9511;54.242;12.448;2023-03-22T10:04:09;100411.28;;;11.37;90.46
18765;BME280;9511;54.242;12.448;2023-03-22T10:06:43;100399.94;;;11.44;91.24
18765;BME280;9511;54.242;12.448;2023-03-22T10:09:16;100399.16;;;11.52;90.62
18765;BME280;9511;54.242;12.448;2023-03-22T10:11:51;100401.97;;;11.62;89.72
18765;BME280;9511;54.242;12.448;2023-03-22T10:14:28;100386.31;;;11.81;90.23
18765;BME280;9511;54.242;12.448;2023-03-22T10:17:00;100390.94;;;11.91;90.09
18765;BME280;9511;54.242;12.448;2023-03-22T10:19:34;100401.44;;;11.85;89.39
18765;BME280;9511;54.242;12.448;2023-03-22T10:22:04;100390.19;;;12.03;89.03
18765;BME280;9511;54.242;12.448;2023-03-22T10:24:35;100382.47;;;12.21;88.22
18765;BME280;9511;54.242;12.448;2023-03-22T10:27:11;100395.06;;;12.37;87.30
18765;BME280;9511;54.242;12.448;2023-03-22T10:29:42;100378.16;;;12.29;86.57
18765;BME280;9511;54.242;12.448;2023-03-22T10:32:14;100387.16;;;12.40;86.18
18765;BME280;9511;54.242;12.448;2023-03-22T10:34:43;100392.41;;;12.37;85.76
18765;BME280;9511;54.242;12.448;2023-03-22T10:37:14;100377.47;;;12.45;85.80
18765;BME280;9511;54.242;12.448;2023-03-22T10:39:44;100383.66;;;12.44;85.18
18765;BME280;9511;54.242;12.448;2023-03-22T10:42:16;100373.84;;;12.37;84.41
18765;BME280;9511;54.242;12.448;2023-03-22T10:44:47;100383.53;;;12.34;84.62
18765;BME280;9511;54.242;12.448;2023-03-22T10:47:18;100376.28;;;12.20;85.02
18765;BME280;9511;54.242;12.448;2023-03-22T10:49:53;100371.25;;;12.42;84.70
18765;BME280;9511;54.242;12.448;2023-03-22T10:52:33;100379.25;;;12.46;83.86
18765;BME280;9511;54.242;12.448;2023-03-22T10:55:04;100378.38;;;12.49;82.75
18765;BME280;9511;54.242;12.448;2023-03-22T10:57:32;100372.44;;;12.70;82.59
18765;BME280;9511;54.242;12.448;2023-03-22T11:00:04;100363.75;;;12.86;81.81
18765;BME280;9511;54.242;12.448;2023-03-22T11:02:43;100366.50;;;12.98;81.38
18765;BME280;9511;54.242;12.448;2023-03-22T11:05:21;100364.13;;;13.29;81.46
18765;BME280;9511;54.242;12.448;2023-03-22T11:07:50;100362.25;;;13.19;80.31
18765;BME280;9511;54.242;12.448;2023-03-22T11:10:23;100352.50;;;13.15;80.45
18765;BME280;9511;54.242;12.448;2023-03-22T11:12:54;100354.28;;;13.19;79.61
18765;BME280;9511;54.242;12.448;2023-03-22T11:15:27;100342.75;;;13.17;79.41
18765;BME280;9511;54.242;12.448;2023-03-22T11:18:00;100348.94;;;13.17;79.95
18765;BME280;9511;54.242;12.448;2023-03-22T11:20:30;100343.44;;;12.93;79.11
18765;BME280;9511;54.242;12.448;2023-03-22T11:23:00;100347.00;;;12.93;79.45
18765;BME280;9511;54.242;12.448;2023-03-22T11:25:30;100343.47;;;12.96;78.79
18765;BME280;9511;54.242;12.448;2023-03-22T11:28:06;100346.22;;;13.07;78.91
18765;BME280;9511;54.242;12.448;2023-03-22T11:30:35;100342.69;;;13.08;78.01
18765;BME280;9511;54.242;12.448;2023-03-22T11:33:14;100337.47;;;13.20;77.96
18765;BME280;9511;54.242;12.448;2023-03-22T11:35:46;100335.78;;;13.25;78.11
18765;BME280;9511;54.242;12.448;2023-03-22T11:38:25;100345.66;;;13.44;77.67
18765;BME280;9511;54.242;12.448;2023-03-22T11:40:56;100328.91;;;13.58;77.30
18765;BME280;9511;54.242;12.448;2023-03-22T11:43:27;100346.47;;;13.31;76.75
18765;BME280;9511;54.242;12.448;2023-03-22T11:45:59;100335.88;;;13.37;76.77
18765;BME280;9511;54.242;12.448;2023-03-22T11:48:28;100333.22;;;13.40;76.73
18765;BME280;9511;54.242;12.448;2023-03-22T11:51:05;100330.72;;;13.66;76.73
18765;BME280;9511;54.242;12.448;2023-03-22T11:53:35;100320.09;;;13.69;76.62
18765;BME280;9511;54.242;12.448;2023-03-22T11:56:05;100320.09;;;13.68;76.05
18765;BME280;9511;54.242;12.448;2023-03-22T11:58:52;100322.72;;;13.60;76.48
18765;BME280;9511;54.242;12.448;2023-03-22T12:01:30;100306.00;;;13.84;76.08
18765;BME280;9511;54.242;12.448;2023-03-22T12:04:00;100306.00;;;13.87;76.12
18765;BME280;9511;54.242;12.448;2023-03-22T12:06:32;100303.38;;;13.93;76.06
18765;BME280;9511;54.242;12.448;2023-03-22T12:09:02;100296.22;;;13.81;75.79
18765;BME280;9511;54.242;12.448;2023-03-22T12:11:35;100286.59;;;14.00;75.97
18765;BME280;9511;54.242;12.448;2023-03-22T12:14:06;100303.34;;;13.87;75.34
18765;BME280;9511;54.242;12.448;2023-03-22T12:16:43;100306.91;;;13.88;76.07
18765;BME280;9511;54.242;12.448;2023-03-22T12:19:18;100298.09;;;13.99;76.41
18765;BME280;9511;54.242;12.448;2023-03-22T12:21:50;100310.31;;;13.62;75.75
18765;BME280;9511;54.242;12.448;2023-03-22T12:24:25;100304.94;;;13.48;76.00
18765;BME280;9511;54.242;12.448;2023-03-22T12:26:57;100304.09;;;13.55;76.29
18765;BME280;9511;54.242;12.448;2023-03-22T12:29:25;100302.25;;;13.42;76.67
18765;BME280;9511;54.242;12.448;2023-03-22T12:31:59;100312.00;;;13.43;76.54
18765;BME280;9511;54.242;12.448;2023-03-22T12:34:35;100319.09;;;13.43;76.16
18765;BME280;9511;54.242;12.448;2023-03-22T12:37:07;100322.50;;;13.25;75.16
18765;BME280;9511;54.242;12.448;2023-03-22T12:39:39;100334.03;;;13.27;75.73
18765;BME280;9511;54.242;12.448;2023-03-22T12:42:14;100320.69;;;13.21;75.62
18765;BME280;9511;54.242;12.448;2023-03-22T12:44:44;100344.59;;;13.24;75.66
18765;BME280;9511;54.242;12.448;2023-03-22T12:47:17;100327.81;;;13.28;75.33
18765;BME280;9511;54.242;12.448;2023-03-22T12:49:51;100319.75;;;13.19;75.27
18765;BME280;9511;54.242;12.448;2023-03-22T12:52:24;100325.16;;;13.26;75.84
18765;BME280;9511;54.242;12.448;2023-03-22T12:54:54;100309.16;;;13.20;75.66
18765;BME280;9511;54.242;12.448;2023-03-22T12:57:24;100313.53;;;13.15;75.77
18765;BME280;9511;54.242;12.448;2023-03-22T12:59:54;100312.59;;;13.09;76.13
18765;BME280;9511;54.242;12.448;2023-03-22T13:02:24;100310.00;;;13.18;76.46
18765;BME280;9511;54.242;12.448;2023-03-22T13:04:56;100314.38;;;13.13;76.79
18765;BME280;9511;54.242;12.448;2023-03-22T13:07:40;100304.66;;;13.10;75.71
18765;BME280;9511;54.242;12.448;2023-03-22T13:10:49;100298.41;;;13.03;75.52
18765;BME280;9511;54.242;12.448;2023-03-22T13:13:41;100300.22;;;13.11;75.46
18765;BME280;9511;54.242;12.448;2023-03-22T13:16:21;100303.88;;;13.22;75.40
18765;BME280;9511;54.242;12.448;2023-03-22T13:19:00;100305.59;;;13.20;75.90
18765;BME280;9511;54.242;12.448;2023-03-22T13:21:31;100301.09;;;13.13;75.26
18765;BME280;9511;54.242;12.448;2023-03-22T13:24:20;100302.06;;;13.19;75.49
18765;BME280;9511;54.242;12.448;2023-03-22T13:26:49;100288.00;;;13.31;75.70
18765;BME280;9511;54.242;12.448;2023-03-22T13:29:20;100286.28;;;13.39;75.47
18765;BME280;9511;54.242;12.448;2023-03-22T13:31:54;100286.25;;;13.33;75.56
18765;BME280;9511;54.242;12.448;2023-03-22T13:34:32;100286.25;;;13.35;75.20
18765;BME280;9511;54.242;12.448;2023-03-22T13:37:07;100280.94;;;13.33;75.01
18765;BME280;9511;54.242;12.448;2023-03-22T13:39:37;100282.69;;;13.33;74.69
18765;BME280;9511;54.242;12.448;2023-03-22T13:42:08;100277.38;;;13.34;74.03
18765;BME280;9511;54.242;12.448;2023-03-22T13:44:42;100284.50;;;13.38;74.09
18765;BME280;9511;54.242;12.448;2023-03-22T13:47:33;100277.47;;;13.45;73.90
18765;BME280;9511;54.242;12.448;2023-03-22T13:50:07;100285.41;;;13.40;73.28
18765;BME280;9511;54.242;12.448;2023-03-22T13:52:38;100284.47;;;13.31;73.10
18765;BME280;9511;54.242;12.448;2023-03-22T13:55:35;100272.03;;;13.29;71.66
18765;BME280;9511;54.242;12.448;2023-03-22T13:58:08;100270.16;;;13.18;71.82
18765;BME280;9511;54.242;12.448;2023-03-22T14:00:52;100279.00;;;13.17;71.35
18765;BME280;9511;54.242;12.448;2023-03-22T14:03:27;100294.03;;;13.12;71.08
18765;BME280;9511;54.242;12.448;2023-03-22T14:06:08;100273.66;;;13.11;72.28
18765;BME280;9511;54.242;12.448;2023-03-22T14:08:39;100264.78;;;13.06;71.78
18765;BME280;9511;54.242;12.448;2023-03-22T14:11:19;100274.50;;;13.03;71.51
18765;BME280;9511;54.242;12.448;2023-03-22T14:13:51;100260.34;;;13.03;71.36
18765;BME280;9511;54.242;12.448;2023-03-22T14:16:31;100278.88;;;12.98;71.69
18765;BME280;9511;54.242;12.448;2023-03-22T14:19:02;100269.16;;;12.99;71.56
18765;BME280;9511;54.242;12.448;2023-03-22T14:21:33;100282.44;;;13.00;72.18
18765;BME280;9511;54.242;12.448;2023-03-22T14:24:04;100282.44;;;13.00;72.74
18765;BME280;9511;54.242;12.448;2023-03-22T14:26:37;100278.88;;;12.98;72.31
18765;BME280;9511;54.242;12.448;2023-03-22T14:29:08;100285.97;;;12.96;73.05
18765;BME280;9511;54.242;12.448;2023-03-22T14:31:36;100274.47;;;12.99;72.07
18765;BME280;9511;54.242;12.448;2023-03-22T14:34:05;100266.53;;;13.03;72.84
18765;BME280;9511;54.242;12.448;2023-03-22T14:36:36;100271.84;;;13.03;72.20
18765;BME280;9511;54.242;12.448;2023-03-22T14:39:11;100278.97;;;13.11;72.07
18765;BME280;9511;54.242;12.448;2023-03-22T14:41:59;100281.59;;;13.03;72.05
18765;BME280;9511;54.242;12.448;2023-03-22T14:44:28;100278.91;;;13.01;72.24
18765;BME280;9511;54.242;12.448;2023-03-22T14:47:01;100286.00;;;13.02;72.04
18765;BME280;9511;54.242;12.448;2023-03-22T14:49:38;100285.16;;;13.10;72.13
18765;BME280;9511;54.242;12.448;2023-03-22T14:52:08;100283.41;;;13.12;72.21
18765;BME280;9511;54.242;12.448;2023-03-22T14:54:39;100281.63;;;13.08;73.35
18765;BME280;9511;54.242;12.448;2023-03-22T14:57:10;100273.59;;;13.01;73.93
18765;BME280;9511;54.242;12.448;2023-03-22T14:59:41;100272.69;;;12.99;74.19
18765;BME280;9511;54.242;12.448;2023-03-22T15:02:20;100275.34;;;12.96;74.65
18765;BME280;9511;54.242;12.448;2023-03-22T15:04:49;100274.38;;;12.90;74.92
18765;BME280;9511;54.242;12.448;2023-03-22T15:07:17;100262.78;;;12.79;74.93
18765;BME280;9511;54.242;12.448;2023-03-22T15:09:45;100284.03;;;12.75;75.75
18765;BME280;9511;54.242;12.448;2023-03-22T15:12:15;100282.25;;;12.74;74.58
18765;BME280;9511;54.242;12.448;2023-03-22T15:14:43;100281.31;;;12.68;74.61
18765;BME280;9511;54.242;12.448;2023-03-22T15:17:13;100275.06;;;12.66;74.88
18765;BME280;9511;54.242;12.448;2023-03-22T15:19:45;100283.88;;;12.59;74.77
18765;BME280;9511;54.242;12.448;2023-03-22T15:22:15;100278.50;;;12.56;75.19
18765;BME280;9511;54.242;12.448;2023-03-22T15:24:51;100290.91;;;12.55;75.72
18765;BME280;9511;54.242;12.448;2023-03-22T15:27:20;100277.63;;;12.52;75.58
18765;BME280;9511;54.242;12.448;2023-03-22T15:29:48;100295.31;;;12.53;73.24
18765;BME280;9511;54.242;12.448;2023-03-22T15:32:18;100291.72;;;12.48;74.25
18765;BME280;9511;54.242;12.448;2023-03-22T15:34:48;100304.91;;;12.40;75.07
18765;BME280;9511;54.242;12.448;2023-03-22T15:37:22;100320.78;;;12.34;73.18
18765;BME280;9511;54.242;12.448;2023-03-22T15:39:51;100317.19;;;12.32;73.03
18765;BME280;9511;54.242;12.448;2023-03-22T15:42:29;100300.28;;;12.21;73.25
18765;BME280;9511;54.242;12.448;2023-03-22T15:44:59;100281.72;;;12.21;74.38
18765;BME280;9511;54.242;12.448;2023-03-22T15:47:28;100279.81;;;12.09;75.30
18765;BME280;9511;54.242;12.448;2023-03-22T15:49:57;100294.69;;;11.96;76.84
18765;BME280;9511;54.242;12.448;2023-03-22T15:52:27;100325.59;;;11.94;77.29
18765;BME280;9511;54.242;12.448;2023-03-22T15:55:00;100330.66;;;11.79;78.28
18765;BME280;9511;54.242;12.448;2023-03-22T15:57:38;100322.69;;;11.76;78.77
18765;BME280;9511;54.242;12.448;2023-03-22T16:00:15;100327.94;;;11.73;77.83
18765;BME280;9511;54.242;12.448;2023-03-22T16:02:53;100324.31;;;11.66;77.56
18765;BME280;9511;54.242;12.448;2023-03-22T16:05:21;100326.97;;;11.65;78.52
18765;BME280;9511;54.242;12.448;2023-03-22T16:07:49;100327.84;;;11.67;77.39
18765;BME280;9511;54.242;12.448;2023-03-22T16:10:18;100320.72;;;11.61;77.78
18765;BME280;9511;54.242;12.448;2023-03-22T16:12:47;100316.28;;;11.59;77.87
18765;BME280;9511;54.242;12.448;2023-03-22T16:15:16;100324.19;;;11.57;77.72
18765;BME280;9511;54.242;12.448;2023-03-22T16:17:44;100324.25;;;11.60;77.13
18765;BME280;9511;54.242;12.448;2023-03-22T16:20:13;100325.06;;;11.56;77.72
18765;BME280;9511;54.242;12.448;2023-03-22T16:22:41;100322.41;;;11.56;77.46
18765;BME280;9511;54.242;12.448;2023-03-22T16:25:15;100326.78;;;11.53;77.72
18765;BME280;9511;54.242;12.448;2023-03-22T16:27:42;100332.09;;;11.53;77.61
18765;BME280;9511;54.242;12.448;2023-03-22T16:30:13;100325.03;;;11.53;78.06
18765;BME280;9511;54.242;12.448;2023-03-22T16:32:41;100317.03;;;11.50;77.51
18765;BME280;9511;54.242;12.448;2023-03-22T16:35:14;100317.88;;;11.48;78.26
18765;BME280;9511;54.242;12.448;2023-03-22T16:37:41;100316.19;;;11.53;78.10
18765;BME280;9511;54.242;12.448;2023-03-22T16:40:13;100320.53;;;11.49;77.88
18765;BME280;9511;54.242;12.448;2023-03-22T16:42:42;100326.66;;;11.47;78.53
18765;BME280;9511;54.242;12.448;2023-03-22T16:45:18;100324.91;;;11.46;78.59
18765;BME280;9511;54.242;12.448;2023-03-22T16:47:47;100329.28;;;11.43;78.63
18765;BME280;9511;54.242;12.448;2023-03-22T16:50:15;100325.78;;;11.44;79.20
18765;BME280;9511;54.242;12.448;2023-03-22T16:52:43;100330.16;;;11.42;78.85
18765;BME280;9511;54.242;12.448;2023-03-22T16:55:15;100327.47;;;11.41;79.34
18765;BME280;9511;54.242;12.448;2023-03-22T16:57:42;100329.19;;;11.36;79.36
18765;BME280;9511;54.242;12.448;2023-03-22T17:00:13;100331.88;;;11.40;79.52
18765;BME280;9511;54.242;12.448;2023-03-22T17:02:41;100331.84;;;11.37;79.40
18765;BME280;9511;54.242;12.448;2023-03-22T17:05:10;100334.50;;;11.39;79.39
18765;BME280;9511;54.242;12.448;2023-03-22T17:07:39;100348.66;;;11.41;78.61
18765;BME280;9511;54.242;12.448;2023-03-22T17:10:10;100341.59;;;11.40;78.63
18765;BME280;9511;54.242;12.448;2023-03-22T17:12:38;100351.31;;;11.41;78.48
18765;BME280;9511;54.242;12.448;2023-03-22T17:15:23;100341.66;;;11.43;78.41
18765;BME280;9511;54.242;12.448;2023-03-22T17:17:51;100350.38;;;11.37;78.25
18765;BME280;9511;54.242;12.448;2023-03-22T17:20:19;100350.31;;;11.33;78.76
18765;BME280;9511;54.242;12.448;2023-03-22T17:22:47;100354.66;;;11.29;79.16